createdAt,value
2023-04-15T00:02:39.401Z,7.32
2023-04-15T00:06:19.504Z,7.23
2023-04-15T00:09:21.793Z,7.09
2023-04-15T00:12:36.150Z,7.05
2023-04-15T00:15:48.093Z,7.08
2023-04-15T00:18:50.373Z,7.13
2023-04-15T00:21:52.744Z,7.05
2023-04-15T00:24:54.982Z,6.98
2023-04-15T00:28:00.749Z,6.89
2023-04-15T00:31:16.118Z,6.80
2023-04-15T00:34:25.131Z,6.63
2023-04-15T00:37:29.251Z,6.55
2023-04-15T00:40:31.615Z,6.47
2023-04-15T00:43:34.178Z,6.48
2023-04-15T00:46:38.415Z,6.44
2023-04-15T00:49:40.962Z,6.41
2023-04-15T00:52:49.229Z,6.38
2023-04-15T00:55:58.134Z,6.37
2023-04-15T00:59:02.324Z,6.33
2023-04-15T01:02:05.883Z,6.38
2023-04-15T01:05:17.340Z,6.30
2023-04-15T01:08:29.811Z,6.24
2023-04-15T01:11:39.926Z,6.21
2023-04-15T01:14:48.162Z,6.13
2023-04-15T01:17:50.773Z,6.09
2023-04-15T01:21:09.121Z,6.09
2023-04-15T01:24:18.880Z,6.17
2023-04-15T01:27:34.130Z,6.20
2023-04-15T01:30:43.501Z,6.14
2023-04-15T01:33:46.198Z,6.20
2023-04-15T01:36:56.215Z,6.16
2023-04-15T01:40:05.857Z,6.12
2023-04-15T01:43:08.327Z,6.02
2023-04-15T01:46:24.158Z,5.99
2023-04-15T01:49:33.300Z,6.02
2023-04-15T01:52:58.133Z,6.19
2023-04-15T01:56:00.423Z,6.40
2023-04-15T01:59:06.355Z,6.31
2023-04-15T02:02:22.386Z,6.29
2023-04-15T02:05:32.100Z,6.23
2023-04-15T02:08:34.347Z,6.21
2023-04-15T02:11:40.363Z,6.07
2023-04-15T02:14:42.566Z,5.88
2023-04-15T02:17:46.118Z,5.78
2023-04-15T02:20:58.998Z,5.71
2023-04-15T02:24:19.305Z,5.73
2023-04-15T02:27:29.007Z,5.69
2023-04-15T02:30:37.248Z,5.73
2023-04-15T02:33:40.158Z,5.78
2023-04-15T02:36:48.739Z,5.76
2023-04-15T02:39:57.566Z,5.79
2023-04-15T02:43:01.864Z,5.85
2023-04-15T02:46:08.484Z,5.83
2023-04-15T02:49:11.009Z,5.86
2023-04-15T02:52:15.104Z,5.80
2023-04-15T02:55:21.880Z,5.83
2023-04-15T02:58:30.826Z,5.79
2023-04-15T03:01:39.199Z,5.82
2023-04-15T03:04:41.497Z,5.80
2023-04-15T03:07:48.765Z,5.75
2023-04-15T03:10:52.677Z,5.75
2023-04-15T03:13:55.101Z,5.79
2023-04-15T03:17:08.148Z,5.71
2023-04-15T03:20:11.355Z,5.69
2023-04-15T03:23:13.626Z,5.72
2023-04-15T03:26:29.396Z,5.65
2023-04-15T03:29:35.759Z,5.65
2023-04-15T03:32:51.184Z,5.83
2023-04-15T03:35:58.712Z,5.96
2023-04-15T03:39:02.488Z,6.10
2023-04-15T03:42:09.997Z,6.13
2023-04-15T03:45:16.768Z,6.29
2023-04-15T03:48:20.581Z,6.21
2023-04-15T03:51:33.300Z,6.26
2023-04-15T03:54:42.506Z,6.23
2023-04-15T03:57:51.093Z,6.10
2023-04-15T04:00:59.529Z,6.06
2023-04-15T04:04:10.919Z,5.99
2023-04-15T04:07:17.826Z,5.86
2023-04-15T04:10:20.200Z,5.76
2023-04-15T04:13:22.458Z,5.79
2023-04-15T04:16:28.481Z,5.75
2023-04-15T04:19:31.017Z,5.79
2023-04-15T04:22:40.770Z,5.79
2023-04-15T04:25:43.665Z,5.93
2023-04-15T04:28:59.235Z,5.78
2023-04-15T04:32:08.536Z,5.66
2023-04-15T04:35:11.534Z,5.65
2023-04-15T04:38:13.814Z,5.89
2023-04-15T04:41:20.738Z,6.16
2023-04-15T04:44:22.902Z,6.33
2023-04-15T04:47:25.166Z,6.45
2023-04-15T04:50:29.001Z,6.60
2023-04-15T04:53:31.590Z,6.63
2023-04-15T04:56:34.759Z,6.64
2023-04-15T04:59:37.168Z,6.74
2023-04-15T05:02:39.698Z,6.87
2023-04-15T05:05:42.070Z,6.87
2023-04-15T05:08:44.236Z,7.09
2023-04-15T05:11:58.655Z,7.37
2023-04-15T05:15:02.696Z,7.37
2023-04-15T05:18:12.150Z,7.59
2023-04-15T05:21:14.457Z,7.70
2023-04-15T05:24:27.098Z,7.57
2023-04-15T05:27:29.298Z,7.54
2023-04-15T05:30:33.628Z,7.62
2023-04-15T05:33:36.560Z,7.64
2023-04-15T05:36:52.109Z,7.77
2023-04-15T05:40:01.084Z,7.75
2023-04-15T05:43:10.218Z,7.91
2023-04-15T05:46:12.742Z,7.94
2023-04-15T05:49:14.966Z,7.99
2023-04-15T05:52:18.235Z,8.02
2023-04-15T05:55:26.522Z,8.05
2023-04-15T05:58:28.713Z,8.18
2023-04-15T06:01:31.231Z,8.20
2023-04-15T06:04:33.595Z,8.11
2023-04-15T06:07:36.896Z,8.15
2023-04-15T06:10:39.123Z,8.24
2023-04-15T06:13:41.499Z,8.24
2023-04-15T06:16:47.402Z,8.48
2023-04-15T06:19:51.804Z,8.52
2023-04-15T06:22:54.024Z,8.63
2023-04-15T06:26:06.128Z,8.75
2023-04-15T06:29:08.319Z,8.96
2023-04-15T06:32:24.120Z,9.24
2023-04-15T06:35:33.229Z,9.28
2023-04-15T06:38:42.286Z,9.31
2023-04-15T06:41:51.245Z,9.47
2023-04-15T06:45:02.270Z,9.69
2023-04-15T06:48:05.073Z,9.90
2023-04-15T06:51:07.304Z,9.82
2023-04-15T06:54:13.349Z,9.98
2023-04-15T06:57:15.575Z,9.99
2023-04-15T07:00:18.683Z,10.19
2023-04-15T07:03:21.037Z,10.21
2023-04-15T07:06:27.713Z,10.47
2023-04-15T07:09:29.980Z,11.22
2023-04-15T07:12:32.784Z,11.38
2023-04-15T07:15:35.034Z,11.49
2023-04-15T07:18:37.356Z,11.93
2023-04-15T07:21:41.960Z,11.95
2023-04-15T07:24:44.329Z,12.20
2023-04-15T07:27:46.640Z,12.01
2023-04-15T07:30:57.834Z,11.32
2023-04-15T07:34:05.264Z,11.00
2023-04-15T07:37:07.493Z,10.72
2023-04-15T07:40:10.312Z,11.07
2023-04-15T07:43:20.716Z,11.23
2023-04-15T07:46:29.596Z,11.72
2023-04-15T07:49:32.171Z,11.39
2023-04-15T07:52:39.255Z,11.44
2023-04-15T07:55:41.517Z,11.40
2023-04-15T07:58:47.982Z,11.53
2023-04-15T08:01:55.301Z,11.53
2023-04-15T08:04:58.078Z,11.53
2023-04-15T08:08:02.196Z,11.53
2023-04-15T08:11:04.526Z,11.49
2023-04-15T08:14:07.003Z,11.50
2023-04-15T08:17:09.471Z,11.82
2023-04-15T08:20:13.439Z,11.97
2023-04-15T08:23:15.987Z,12.31
2023-04-15T08:26:19.045Z,12.54
2023-04-15T08:29:21.529Z,12.61
2023-04-15T08:32:23.827Z,12.54
2023-04-15T08:35:26.112Z,12.17
2023-04-15T08:38:28.303Z,12.00
2023-04-15T08:41:43.198Z,12.13
2023-04-15T08:44:51.845Z,12.11
2023-04-15T08:48:10.127Z,12.37
2023-04-15T08:51:16.306Z,12.28
2023-04-15T08:54:18.968Z,12.08
2023-04-15T08:57:21.245Z,12.25
2023-04-15T09:00:24.146Z,12.46
2023-04-15T09:03:26.806Z,12.28
2023-04-15T09:06:29.219Z,12.51
2023-04-15T09:09:40.281Z,12.45
2023-04-15T09:12:46.707Z,12.42
2023-04-15T09:15:55.300Z,12.44
2023-04-15T09:19:21.699Z,12.41
2023-04-15T09:22:23.933Z,12.48
2023-04-15T09:25:28.392Z,12.51
2023-04-15T09:28:31.981Z,12.23
2023-04-15T09:31:34.284Z,12.00
2023-04-15T09:34:37.410Z,11.73
2023-04-15T09:37:45.024Z,11.97
2023-04-15T09:40:47.190Z,12.08
2023-04-15T09:43:49.438Z,12.13
2023-04-15T09:46:52.212Z,12.24
2023-04-15T09:50:01.345Z,12.32
2023-04-15T09:53:03.813Z,12.45
2023-04-15T09:56:11.069Z,12.68
2023-04-15T09:59:13.327Z,12.65
2023-04-15T10:02:16.533Z,12.64
2023-04-15T10:05:21.182Z,12.78
2023-04-15T10:08:37.728Z,12.76
2023-04-15T10:11:40.909Z,12.66
2023-04-15T10:14:55.587Z,12.61
2023-04-15T10:18:00.467Z,12.52
2023-04-15T10:21:02.835Z,12.07
2023-04-15T10:24:05.595Z,12.20
2023-04-15T10:27:09.119Z,11.97
2023-04-15T10:30:14.135Z,12.21
2023-04-15T10:33:25.942Z,12.69
2023-04-15T10:36:28.211Z,13.48
2023-04-15T10:39:33.272Z,14.19
2023-04-15T10:42:36.557Z,13.92
2023-04-15T10:45:38.832Z,13.88
2023-04-15T10:48:48.136Z,14.16
2023-04-15T10:51:58.252Z,15.39
2023-04-15T10:55:15.762Z,15.11
2023-04-15T10:58:17.987Z,17.14
2023-04-15T11:01:23.292Z,16.13
2023-04-15T11:04:58.797Z,15.28
2023-04-15T11:08:01.027Z,16.05
2023-04-15T11:11:03.339Z,16.02
2023-04-15T11:14:16.313Z,15.85
2023-04-15T11:17:31.763Z,15.92
2023-04-15T11:20:45.210Z,15.12
2023-04-15T11:23:47.586Z,14.72
2023-04-15T11:26:59.895Z,14.14
2023-04-15T11:30:02.686Z,13.92
2023-04-15T11:33:09.961Z,13.65
2023-04-15T11:36:18.497Z,13.61
2023-04-15T11:39:22.837Z,13.78
2023-04-15T11:42:39.313Z,13.88
2023-04-15T11:45:58.501Z,14.21
2023-04-15T11:49:05.629Z,14.70
2023-04-15T11:52:11.551Z,14.84
2023-04-15T11:55:15.309Z,14.52
2023-04-15T11:58:24.708Z,14.01
2023-04-15T12:01:39.966Z,14.09
2023-04-15T12:04:42.721Z,14.24
2023-04-15T12:08:00.822Z,14.11
2023-04-15T12:11:03.105Z,13.98
2023-04-15T12:14:12.883Z,13.92
2023-04-15T12:17:18.194Z,13.89
2023-04-15T12:20:27.502Z,13.91
2023-04-15T12:23:29.670Z,14.21
2023-04-15T12:26:36.122Z,14.75
2023-04-15T12:29:46.199Z,14.73
2023-04-15T12:32:57.243Z,14.56
2023-04-15T12:35:59.547Z,14.40
2023-04-15T12:39:12.577Z,14.04
2023-04-15T12:42:16.133Z,14.08
2023-04-15T12:45:21.487Z,13.75
2023-04-15T12:48:31.034Z,14.02
2023-04-15T12:51:45.579Z,13.98
2023-04-15T12:54:47.748Z,14.29
2023-04-15T12:57:50.074Z,14.97
2023-04-15T13:00:52.476Z,15.07
2023-04-15T13:03:54.853Z,15.81
2023-04-15T13:07:02.114Z,16.71
2023-04-15T13:10:04.730Z,15.69
2023-04-15T13:13:07.068Z,15.42
2023-04-15T13:16:09.913Z,15.45
2023-04-15T13:19:12.080Z,15.45
2023-04-15T13:22:18.759Z,15.12
2023-04-15T13:25:28.018Z,15.04
2023-04-15T13:28:30.513Z,15.41
2023-04-15T13:31:32.860Z,15.30
2023-04-15T13:34:35.460Z,15.24
2023-04-15T13:37:37.757Z,15.16
2023-04-15T13:40:43.169Z,15.21
2023-04-15T13:43:45.682Z,15.37
2023-04-15T13:46:47.958Z,15.20
2023-04-15T13:50:10.062Z,15.21
2023-04-15T13:53:13.093Z,15.37
2023-04-15T13:56:15.526Z,15.18
2023-04-15T13:59:31.110Z,15.49
2023-04-15T14:02:37.721Z,15.72
2023-04-15T14:05:40.399Z,15.85
2023-04-15T14:08:42.788Z,15.83
2023-04-15T14:11:45.025Z,16.31
2023-04-15T14:14:47.240Z,16.05
2023-04-15T14:17:49.494Z,15.83
2023-04-15T14:20:56.651Z,15.76
2023-04-15T14:23:58.955Z,16.06
2023-04-15T14:27:05.181Z,16.00
2023-04-15T14:30:08.152Z,16.03
2023-04-15T14:33:10.615Z,16.41
2023-04-15T14:36:12.926Z,16.72
2023-04-15T14:39:19.714Z,17.80
2023-04-15T14:42:22.035Z,17.33
2023-04-15T14:45:24.309Z,17.65
2023-04-15T14:48:26.632Z,17.32
2023-04-15T14:51:29.005Z,16.91
2023-04-15T14:54:31.234Z,16.54
2023-04-15T14:57:33.406Z,16.56
2023-04-15T15:00:39.300Z,16.88
2023-04-15T15:03:43.920Z,17.45
2023-04-15T15:06:49.128Z,18.05
2023-04-15T15:09:55.167Z,18.22
2023-04-15T15:12:57.428Z,18.02
2023-04-15T15:16:03.141Z,17.73
2023-04-15T15:19:05.846Z,17.26
2023-04-15T15:22:08.232Z,16.65
2023-04-15T15:25:10.589Z,16.75
2023-04-15T15:28:30.284Z,16.77
2023-04-15T15:31:36.269Z,16.60
2023-04-15T15:34:38.528Z,16.36
2023-04-15T15:37:40.962Z,16.31
2023-04-15T15:40:48.644Z,16.41
2023-04-15T15:43:50.932Z,16.29
2023-04-15T15:47:25.766Z,16.26
2023-04-15T15:50:28.091Z,15.93
2023-04-15T15:53:30.317Z,15.68
2023-04-15T15:56:33.307Z,15.48
2023-04-15T15:59:35.541Z,15.41
2023-04-15T16:05:47.926Z,15.28
2023-04-15T16:08:50.263Z,15.28
2023-04-15T16:11:52.465Z,15.16
2023-04-15T16:14:54.782Z,14.88
2023-04-15T16:17:57.054Z,14.97
2023-04-15T16:21:03.184Z,14.91
2023-04-15T16:24:05.617Z,14.53
2023-04-15T16:27:07.923Z,14.32
2023-04-15T16:30:11.084Z,14.14
2023-04-15T16:33:17.225Z,13.73
2023-04-15T16:36:20.676Z,13.58
2023-04-15T16:39:24.120Z,13.71
2023-04-15T16:42:26.895Z,13.84
2023-04-15T16:45:29.288Z,13.88
2023-04-15T16:48:31.597Z,13.63
2023-04-15T16:51:33.921Z,13.57
2023-04-15T16:54:41.155Z,13.34
2023-04-15T16:58:01.485Z,13.07
2023-04-15T17:01:05.073Z,12.89
2023-04-15T17:04:07.631Z,12.52
2023-04-15T17:07:10.701Z,12.46
2023-04-15T17:10:16.320Z,12.20
2023-04-15T17:13:19.402Z,12.05
2023-04-15T17:16:23.285Z,12.01
2023-04-15T17:19:27.550Z,11.76
2023-04-15T17:22:36.171Z,11.49
2023-04-15T17:25:38.358Z,11.55
2023-04-15T17:28:40.647Z,11.29
2023-04-15T17:31:42.871Z,11.47
2023-04-15T17:34:50.696Z,11.47
2023-04-15T17:37:58.893Z,11.25
2023-04-15T17:41:01.789Z,11.08
2023-04-15T17:44:04.162Z,11.08
2023-04-15T17:47:09.163Z,10.82
2023-04-15T17:50:11.398Z,10.63
2023-04-15T17:53:20.359Z,10.60
2023-04-15T17:56:22.682Z,10.57
2023-04-15T17:59:24.991Z,10.20
2023-04-15T18:02:29.419Z,9.75
2023-04-15T18:05:45.082Z,9.55
2023-04-15T18:08:54.134Z,9.49
2023-04-15T18:11:57.306Z,9.49
2023-04-15T18:15:06.295Z,9.57
2023-04-15T18:18:15.260Z,9.55
2023-04-15T18:21:17.452Z,9.52
2023-04-15T18:24:19.886Z,9.61
2023-04-15T18:27:28.176Z,9.71
2023-04-15T18:30:37.072Z,9.61
2023-04-15T18:33:39.384Z,9.71
2023-04-15T18:36:41.705Z,9.63
2023-04-15T18:39:44.744Z,9.38
2023-04-15T18:43:00.104Z,9.31
2023-04-15T18:46:11.865Z,9.24
2023-04-15T18:49:14.204Z,9.16
2023-04-15T18:52:16.659Z,9.18
2023-04-15T18:55:29.582Z,8.94
2023-04-15T18:59:18.253Z,8.90
2023-04-15T19:02:14.081Z,8.87
2023-04-15T19:05:29.218Z,8.90
2023-04-15T19:08:38.062Z,8.99
2023-04-15T19:11:47.715Z,9.03
2023-04-15T19:14:51.664Z,9.06
2023-04-15T19:18:00.215Z,9.13
2023-04-15T19:21:09.207Z,9.18
2023-04-15T19:24:15.281Z,9.24
2023-04-15T19:27:19.451Z,9.34
2023-04-15T19:30:21.912Z,9.42
2023-04-15T19:33:31.206Z,9.48
2023-04-15T19:36:38.631Z,9.62
2023-04-15T19:39:54.015Z,9.69
2023-04-15T19:43:03.053Z,9.62
2023-04-15T19:46:06.745Z,9.44
2023-04-15T19:49:16.698Z,9.49
2023-04-15T19:52:25.171Z,9.58
2023-04-15T19:55:27.355Z,9.42
2023-04-15T19:58:43.081Z,9.32
2023-04-15T20:01:46.043Z,9.35
2023-04-15T20:04:48.762Z,9.48
2023-04-15T20:07:53.019Z,9.63
2023-04-15T20:11:08.052Z,9.63
2023-04-15T20:14:17.852Z,9.62
2023-04-15T20:17:20.145Z,9.71
2023-04-15T20:20:29.168Z,9.72
2023-04-15T20:23:31.391Z,9.72
2023-04-15T20:26:33.612Z,9.67
2023-04-15T20:29:36.268Z,9.72
2023-04-15T20:32:45.176Z,9.69
2023-04-15T20:35:51.098Z,9.68
2023-04-15T20:38:53.325Z,9.72
2023-04-15T20:41:56.085Z,9.82
2023-04-15T20:44:58.246Z,9.74
2023-04-15T20:48:14.170Z,9.71
2023-04-15T20:51:44.042Z,9.68
2023-04-15T20:54:53.031Z,9.44
2023-04-15T20:57:55.275Z,9.27
2023-04-15T21:01:11.129Z,9.18
2023-04-15T21:04:22.058Z,9.30
2023-04-15T21:07:37.031Z,9.35
2023-04-15T21:10:46.013Z,9.35
2023-04-15T21:14:02.074Z,9.39
2023-04-15T21:17:11.545Z,9.41
2023-04-15T21:20:27.036Z,9.45
2023-04-15T21:23:36.172Z,9.37
2023-04-15T21:26:45.056Z,9.34
2023-04-15T21:29:54.176Z,9.28
2023-04-15T21:33:03.047Z,9.26
2023-04-15T21:36:05.511Z,9.24
2023-04-15T21:39:08.057Z,9.13
2023-04-15T21:42:10.757Z,9.14
2023-04-15T21:45:26.070Z,9.10
2023-04-15T21:48:47.062Z,9.08
2023-04-15T21:51:49.291Z,9.18
2023-04-15T21:54:54.584Z,9.23
2023-04-15T21:58:10.146Z,9.20
2023-04-15T22:01:19.017Z,9.23
2023-04-15T22:04:21.621Z,9.35
2023-04-15T22:07:23.862Z,9.32
2023-04-15T22:10:26.355Z,9.26
2023-04-15T22:13:28.519Z,9.31
2023-04-15T22:16:44.138Z,9.32
2023-04-15T22:19:53.184Z,9.24
2023-04-15T22:23:10.082Z,9.28
2023-04-15T22:26:19.033Z,9.28
2023-04-15T22:29:21.837Z,9.34
2023-04-15T22:32:30.461Z,9.17
2023-04-15T22:35:39.208Z,9.06
2023-04-15T22:38:48.432Z,8.83
2023-04-15T22:41:57.202Z,8.73
2023-04-15T22:45:07.172Z,8.62
2023-04-15T22:48:16.214Z,8.72
2023-04-15T22:51:22.567Z,8.66
2023-04-15T22:54:33.010Z,8.41
2023-04-15T22:57:35.166Z,8.24
2023-04-15T23:00:37.572Z,8.21
2023-04-15T23:03:55.476Z,8.21
2023-04-15T23:07:13.046Z,8.34
2023-04-15T23:10:22.283Z,8.36
2023-04-15T23:14:49.028Z,8.44
2023-04-15T23:17:58.149Z,8.35
2023-04-15T23:21:00.486Z,8.44
2023-04-15T23:24:02.771Z,8.53
2023-04-15T23:27:18.030Z,8.56
2023-04-15T23:30:27.082Z,8.36
2023-04-15T23:33:45.034Z,8.16
2023-04-15T23:36:54.023Z,8.42
2023-04-15T23:39:56.248Z,8.45
2023-04-15T23:43:05.422Z,8.52
2023-04-15T23:46:14.060Z,8.57
2023-04-15T23:49:16.987Z,8.53
2023-04-15T23:52:34.039Z,8.62
2023-04-15T23:55:58.315Z,8.56
2023-04-15T23:59:20.052Z,8.65
